sensor_id;sensor_type;location;lat;lon;timestamp;pressure;altitude;pressure_sealevel;temperature;humidity
74310;BME280;62722;51.142;17.052;2022-10-13T00:01:08;101288.41;;;5.05;89.16
74310;BME280;62722;51.142;17.052;2022-10-13T00:03:37;101285.81;;;5.03;89.41
74310;BME280;62722;51.142;17.052;2022-10-13T00:06:08;101287.22;;;5.16;89.43
74310;BME280;62722;51.142;17.052;2022-10-13T00:08:36;101281.97;;;5.16;88.95
74310;BME280;62722;51.142;17.052;2022-10-13T00:11:09;101283.00;;;5.11;89.18
74310;BME280;62722;51.142;17.052;2022-10-13T00:13:37;101277.94;;;5.05;89.20
74310;BME280;62722;51.142;17.052;2022-10-13T00:16:05;101282.28;;;5.06;89.30
74310;BME280;62722;51.142;17.052;2022-10-13T00:18:32;101278.88;;;5.02;88.93
74310;BME280;62722;51.142;17.052;2022-10-13T00:21:00;101271.06;;;5.01;89.16
74310;BME280;62722;51.142;17.052;2022-10-13T00:23:29;101274.66;;;4.97;89.01
74310;BME280;62722;51.142;17.052;2022-10-13T00:25:56;101275.53;;;4.96;89.64
74310;BME280;62722;51.142;17.052;2022-10-13T00:28:24;101273.78;;;4.96;90.28
74310;BME280;62722;51.142;17.052;2022-10-13T00:30:51;101268.44;;;5.01;89.85
74310;BME280;62722;51.142;17.052;2022-10-13T00:33:18;101263.03;;;5.07;89.18
74310;BME280;62722;51.142;17.052;2022-10-13T00:35:47;101264.88;;;5.03;88.59
74310;BME280;62722;51.142;17.052;2022-10-13T00:38:16;101258.00;;;4.99;88.19
74310;BME280;62722;51.142;17.052;2022-10-13T00:40:47;101260.81;;;4.91;89.35
74310;BME280;62722;51.142;17.052;2022-10-13T00:43:20;101264.41;;;4.89;89.75
74310;BME280;62722;51.142;17.052;2022-10-13T00:45:48;101271.38;;;4.88;89.43
74310;BME280;62722;51.142;17.052;2022-10-13T00:48:18;101266.22;;;4.87;89.25
74310;BME280;62722;51.142;17.052;2022-10-13T00:50:46;101258.50;;;4.81;90.72
74310;BME280;62722;51.142;17.052;2022-10-13T00:53:16;101263.63;;;4.85;90.78
74310;BME280;62722;51.142;17.052;2022-10-13T00:55:46;101257.59;;;4.83;90.12
74310;BME280;62722;51.142;17.052;2022-10-13T00:58:15;101251.56;;;4.80;90.43
74310;BME280;62722;51.142;17.052;2022-10-13T01:00:46;101253.34;;;4.78;90.76
74310;BME280;62722;51.142;17.052;2022-10-13T01:03:14;101256.84;;;4.77;90.18
74310;BME280;62722;51.142;17.052;2022-10-13T01:05:42;101258.66;;;4.75;90.70
74310;BME280;62722;51.142;17.052;2022-10-13T01:08:10;101255.16;;;4.76;90.30
74310;BME280;62722;51.142;17.052;2022-10-13T01:10:55;101247.25;;;4.77;90.17
74310;BME280;62722;51.142;17.052;2022-10-13T01:13:25;101255.59;;;4.91;89.97
74310;BME280;62722;51.142;17.052;2022-10-13T01:16:03;101258.97;;;4.97;89.78
74310;BME280;62722;51.142;17.052;2022-10-13T01:18:36;101252.00;;;4.96;88.86
74310;BME280;62722;51.142;17.052;2022-10-13T01:21:15;101251.22;;;4.92;89.92
74310;BME280;62722;51.142;17.052;2022-10-13T01:23:59;101249.44;;;4.94;89.69
74310;BME280;62722;51.142;17.052;2022-10-13T01:30:18;101250.63;;;4.82;89.33
74310;BME280;62722;51.142;17.052;2022-10-13T01:33:05;101241.31;;;4.72;90.30
74310;BME280;62722;51.142;17.052;2022-10-13T01:35:50;101236.22;;;4.66;90.85
74310;BME280;62722;51.142;17.052;2022-10-13T01:38:30;101239.03;;;4.59;91.23
74310;BME280;62722;51.142;17.052;2022-10-13T01:41:05;101223.50;;;4.54;91.07
74310;BME280;62722;51.142;17.052;2022-10-13T01:43:36;101221.75;;;4.53;92.00
74310;BME280;62722;51.142;17.052;2022-10-13T01:46:09;101232.91;;;4.60;91.75
74310;BME280;62722;51.142;17.052;2022-10-13T01:48:39;101223.91;;;4.71;90.14
74310;BME280;62722;51.142;17.052;2022-10-13T01:51:12;101222.91;;;4.75;89.72
74310;BME280;62722;51.142;17.052;2022-10-13T01:53:40;101221.19;;;4.74;89.67
74310;BME280;62722;51.142;17.052;2022-10-13T01:56:08;101217.69;;;4.75;90.07
74310;BME280;62722;51.142;17.052;2022-10-13T01:58:36;101212.53;;;4.72;90.35
74310;BME280;62722;51.142;17.052;2022-10-13T02:01:19;101217.97;;;4.65;91.13
74310;BME280;62722;51.142;17.052;2022-10-13T02:03:56;101203.38;;;4.56;91.45
74310;BME280;62722;51.142;17.052;2022-10-13T02:06:30;101209.50;;;4.55;91.76
74310;BME280;62722;51.142;17.052;2022-10-13T02:09:02;101209.66;;;4.49;92.18
74310;BME280;62722;51.142;17.052;2022-10-13T02:11:32;101208.81;;;4.49;92.47
74310;BME280;62722;51.142;17.052;2022-10-13T02:14:03;101204.53;;;4.46;92.17
74310;BME280;62722;51.142;17.052;2022-10-13T02:16:38;101196.81;;;4.40;92.43
74310;BME280;62722;51.142;17.052;2022-10-13T02:19:09;101200.53;;;4.31;92.89
74310;BME280;62722;51.142;17.052;2022-10-13T02:21:38;101191.88;;;4.29;93.61
74310;BME280;62722;51.142;17.052;2022-10-13T02:24:07;101184.19;;;4.23;93.74
74310;BME280;62722;51.142;17.052;2022-10-13T02:26:36;101184.09;;;4.28;94.04
74310;BME280;62722;51.142;17.052;2022-10-13T02:29:07;101191.78;;;4.32;93.72
74310;BME280;62722;51.142;17.052;2022-10-13T02:31:37;101199.50;;;4.37;93.61
74310;BME280;62722;51.142;17.052;2022-10-13T02:34:04;101199.47;;;4.38;93.48
74310;BME280;62722;51.142;17.052;2022-10-13T02:36:32;101197.72;;;4.39;93.33
74310;BME280;62722;51.142;17.052;2022-10-13T02:38:59;101202.72;;;4.48;93.55
74310;BME280;62722;51.142;17.052;2022-10-13T02:41:27;101198.13;;;4.58;92.88
74310;BME280;62722;51.142;17.052;2022-10-13T02:43:54;101201.56;;;4.58;92.32
74310;BME280;62722;51.142;17.052;2022-10-13T02:46:21;101202.44;;;4.59;92.51
74310;BME280;62722;51.142;17.052;2022-10-13T02:48:50;101194.59;;;4.59;92.22
74310;BME280;62722;51.142;17.052;2022-10-13T02:51:18;101190.13;;;4.62;92.52
74310;BME280;62722;51.142;17.052;2022-10-13T02:53:45;101195.22;;;4.68;92.19
74310;BME280;62722;51.142;17.052;2022-10-13T02:56:13;101194.44;;;4.65;91.70
74310;BME280;62722;51.142;17.052;2022-10-13T02:58:40;101181.47;;;4.60;91.80
74310;BME280;62722;51.142;17.052;2022-10-13T03:01:09;101191.19;;;4.55;92.36
74310;BME280;62722;51.142;17.052;2022-10-13T03:03:37;101190.38;;;4.53;92.45
74310;BME280;62722;51.142;17.052;2022-10-13T03:06:06;101201.78;;;4.51;91.74
74310;BME280;62722;51.142;17.052;2022-10-13T03:08:34;101202.00;;;4.41;92.32
74310;BME280;62722;51.142;17.052;2022-10-13T03:11:01;101194.25;;;4.38;92.10
74310;BME280;62722;51.142;17.052;2022-10-13T03:13:29;101185.72;;;4.32;92.48
74310;BME280;62722;51.142;17.052;2022-10-13T03:15:56;101184.97;;;4.27;92.89
74310;BME280;62722;51.142;17.052;2022-10-13T03:18:24;101189.44;;;4.22;93.03
74310;BME280;62722;51.142;17.052;2022-10-13T03:20:55;101193.75;;;4.24;92.85
74310;BME280;62722;51.142;17.052;2022-10-13T03:23:25;101197.16;;;4.26;92.71
74310;BME280;62722;51.142;17.052;2022-10-13T03:25:53;101185.94;;;4.23;92.79
74310;BME280;62722;51.142;17.052;2022-10-13T03:28:21;101188.72;;;4.17;92.86
74310;BME280;62722;51.142;17.052;2022-10-13T03:30:48;101188.78;;;4.14;93.22
74310;BME280;62722;51.142;17.052;2022-10-13T03:33:16;101189.59;;;4.16;92.95
74310;BME280;62722;51.142;17.052;2022-10-13T03:35:43;101192.25;;;4.14;93.30
74310;BME280;62722;51.142;17.052;2022-10-13T03:38:10;101189.69;;;4.13;93.64
74310;BME280;62722;51.142;17.052;2022-10-13T03:40:39;101181.00;;;4.11;93.32
74310;BME280;62722;51.142;17.052;2022-10-13T03:43:06;101184.56;;;4.08;93.64
74310;BME280;62722;51.142;17.052;2022-10-13T03:45:34;101176.88;;;4.02;93.21
74310;BME280;62722;51.142;17.052;2022-10-13T03:48:01;101181.31;;;3.99;93.66
74310;BME280;62722;51.142;17.052;2022-10-13T03:50:29;101175.25;;;3.98;94.17
74310;BME280;62722;51.142;17.052;2022-10-13T03:52:56;101179.63;;;3.96;94.35
74310;BME280;62722;51.142;17.052;2022-10-13T03:55:23;101176.13;;;3.97;94.72
74310;BME280;62722;51.142;17.052;2022-10-13T03:57:52;101183.84;;;4.02;94.56
74310;BME280;62722;51.142;17.052;2022-10-13T04:00:19;101180.34;;;4.03;94.70
74310;BME280;62722;51.142;17.052;2022-10-13T04:02:47;101188.97;;;4.06;94.40
74310;BME280;62722;51.142;17.052;2022-10-13T04:05:15;101182.84;;;4.07;94.33
74310;BME280;62722;51.142;17.052;2022-10-13T04:07:42;101178.47;;;4.08;94.25
74310;BME280;62722;51.142;17.052;2022-10-13T04:10:09;101175.78;;;4.11;94.29
74310;BME280;62722;51.142;17.052;2022-10-13T04:12:37;101179.22;;;4.13;93.54
74310;BME280;62722;51.142;17.052;2022-10-13T04:15:07;101175.78;;;4.11;93.78
74310;BME280;62722;51.142;17.052;2022-10-13T04:17:34;101182.84;;;4.07;93.97
74310;BME280;62722;51.142;17.052;2022-10-13T04:20:02;101170.72;;;4.05;93.57
74310;BME280;62722;51.142;17.052;2022-10-13T04:22:30;101172.44;;;4.06;94.05
74310;BME280;62722;51.142;17.052;2022-10-13T04:24:58;101175.13;;;4.03;94.20
74310;BME280;62722;51.142;17.052;2022-10-13T04:27:25;101172.56;;;4.01;94.14
74310;BME280;62722;51.142;17.052;2022-10-13T04:29:52;101163.84;;;4.01;94.01
74310;BME280;62722;51.142;17.052;2022-10-13T04:32:21;101172.53;;;4.03;94.34
74310;BME280;62722;51.142;17.052;2022-10-13T04:34:48;101169.00;;;4.04;94.32
74310;BME280;62722;51.142;17.052;2022-10-13T04:37:16;101172.53;;;4.03;93.60
74310;BME280;62722;51.142;17.052;2022-10-13T04:39:43;101165.56;;;4.02;93.79
74310;BME280;62722;51.142;17.052;2022-10-13T04:42:10;101168.19;;;4.02;94.18
74310;BME280;62722;51.142;17.052;2022-10-13T04:44:38;101165.56;;;4.02;93.86
74310;BME280;62722;51.142;17.052;2022-10-13T04:47:05;101166.50;;;3.99;94.46
74310;BME280;62722;51.142;17.052;2022-10-13T04:49:34;101169.06;;;4.01;94.33
74310;BME280;62722;51.142;17.052;2022-10-13T04:52:02;101172.53;;;4.03;94.46
74310;BME280;62722;51.142;17.052;2022-10-13T04:54:29;101170.81;;;4.00;94.51
74310;BME280;62722;51.142;17.052;2022-10-13T04:56:57;101168.28;;;3.97;94.51
74310;BME280;62722;51.142;17.052;2022-10-13T04:59:25;101165.69;;;3.96;94.73
74310;BME280;62722;51.142;17.052;2022-10-13T05:01:52;101159.69;;;3.93;94.13
74310;BME280;62722;51.142;17.052;2022-10-13T05:04:20;101162.38;;;3.90;94.48
74310;BME280;62722;51.142;17.052;2022-10-13T05:06:48;101158.91;;;3.88;94.68
74310;BME280;62722;51.142;17.052;2022-10-13T05:09:15;101159.84;;;3.86;94.76
74310;BME280;62722;51.142;17.052;2022-10-13T05:11:43;101157.22;;;3.87;94.68
74310;BME280;62722;51.142;17.052;2022-10-13T05:14:10;101158.09;;;3.88;94.73
74310;BME280;62722;51.142;17.052;2022-10-13T05:16:37;101155.50;;;3.86;94.54
74310;BME280;62722;51.142;17.052;2022-10-13T05:19:04;101155.50;;;3.86;95.13
74310;BME280;62722;51.142;17.052;2022-10-13T05:21:31;101152.00;;;3.87;95.24
74310;BME280;62722;51.142;17.052;2022-10-13T05:24:00;101153.69;;;3.88;95.31
74310;BME280;62722;51.142;17.052;2022-10-13T05:26:28;101151.88;;;3.92;94.83
74310;BME280;62722;51.142;17.052;2022-10-13T05:28:57;101149.19;;;3.95;94.93
74310;BME280;62722;51.142;17.052;2022-10-13T05:31:26;101151.75;;;3.97;94.83
74310;BME280;62722;51.142;17.052;2022-10-13T05:33:53;101152.53;;;4.00;95.09
74310;BME280;62722;51.142;17.052;2022-10-13T05:36:23;101154.25;;;4.03;94.75
74310;BME280;62722;51.142;17.052;2022-10-13T05:38:51;101150.59;;;4.08;94.83
74310;BME280;62722;51.142;17.052;2022-10-13T05:41:21;101151.50;;;4.07;94.62
74310;BME280;62722;51.142;17.052;2022-10-13T05:43:50;101154.09;;;4.07;94.96
74310;BME280;62722;51.142;17.052;2022-10-13T05:46:18;101161.84;;;4.12;94.24
74310;BME280;62722;51.142;17.052;2022-10-13T05:48:46;101147.09;;;4.09;94.79
74310;BME280;62722;51.142;17.052;2022-10-13T05:51:15;101145.38;;;4.08;94.63
74310;BME280;62722;51.142;17.052;2022-10-13T05:53:47;101147.13;;;4.08;95.41
74310;BME280;62722;51.142;17.052;2022-10-13T05:56:18;101145.34;;;4.10;95.10
74310;BME280;62722;51.142;17.052;2022-10-13T05:58:50;101147.81;;;4.14;95.54
74310;BME280;62722;51.142;17.052;2022-10-13T06:01:20;101144.31;;;4.17;95.11
74310;BME280;62722;51.142;17.052;2022-10-13T06:03:51;101149.44;;;4.20;95.56
74310;BME280;62722;51.142;17.052;2022-10-13T06:06:20;101142.38;;;4.23;95.05
74310;BME280;62722;51.142;17.052;2022-10-13T06:08:49;101137.91;;;4.28;95.56
74310;BME280;62722;51.142;17.052;2022-10-13T06:11:16;101143.91;;;4.32;95.49
74310;BME280;62722;51.142;17.052;2022-10-13T06:13:43;101137.75;;;4.33;95.01
74310;BME280;62722;51.142;17.052;2022-10-13T06:16:12;101148.06;;;4.39;95.18
74310;BME280;62722;51.142;17.052;2022-10-13T06:18:39;101140.94;;;4.46;95.23
74310;BME280;62722;51.142;17.052;2022-10-13T06:21:07;101151.25;;;4.50;95.01
74310;BME280;62722;51.142;17.052;2022-10-13T06:23:34;101140.66;;;4.55;94.86
74310;BME280;62722;51.142;17.052;2022-10-13T06:26:01;101138.75;;;4.61;95.28
74310;BME280;62722;51.142;17.052;2022-10-13T06:28:28;101131.59;;;4.68;94.72
74310;BME280;62722;51.142;17.052;2022-10-13T06:30:55;101138.38;;;4.75;95.16
74310;BME280;62722;51.142;17.052;2022-10-13T06:33:25;101128.59;;;4.81;94.82
74310;BME280;62722;51.142;17.052;2022-10-13T06:35:52;101133.72;;;4.84;94.54
74310;BME280;62722;51.142;17.052;2022-10-13T06:38:19;101124.00;;;4.89;94.39
74310;BME280;62722;51.142;17.052;2022-10-13T06:40:47;101122.94;;;4.97;94.39
74310;BME280;62722;51.142;17.052;2022-10-13T06:43:14;101119.28;;;5.02;94.67
74310;BME280;62722;51.142;17.052;2022-10-13T06:45:41;101117.44;;;5.06;93.98
74310;BME280;62722;51.142;17.052;2022-10-13T06:48:08;101118.16;;;5.11;94.00
74310;BME280;62722;51.142;17.052;2022-10-13T06:50:37;101114.44;;;5.18;94.12
74310;BME280;62722;51.142;17.052;2022-10-13T06:53:04;101114.31;;;5.22;93.63
74310;BME280;62722;51.142;17.052;2022-10-13T06:55:31;101116.69;;;5.30;93.30
74310;BME280;62722;51.142;17.052;2022-10-13T06:57:58;101120.94;;;5.34;93.21
74310;BME280;62722;51.142;17.052;2022-10-13T07:00:25;101111.09;;;5.42;92.92
74310;BME280;62722;51.142;17.052;2022-10-13T07:02:53;101125.75;;;5.48;92.71
74310;BME280;62722;51.142;17.052;2022-10-13T07:05:20;101114.34;;;5.50;92.97
74310;BME280;62722;51.142;17.052;2022-10-13T07:07:50;101120.13;;;5.60;92.96
74310;BME280;62722;51.142;17.052;2022-10-13T07:10:18;101116.47;;;5.65;92.68
74310;BME280;62722;51.142;17.052;2022-10-13T07:12:45;101118.03;;;5.71;92.79
74310;BME280;62722;51.142;17.052;2022-10-13T07:15:13;101120.41;;;5.78;92.54
74310;BME280;62722;51.142;17.052;2022-10-13T07:17:40;101114.06;;;5.85;91.56
74310;BME280;62722;51.142;17.052;2022-10-13T07:20:08;101109.56;;;5.91;91.28
74310;BME280;62722;51.142;17.052;2022-10-13T07:22:35;101114.69;;;5.94;91.19
74310;BME280;62722;51.142;17.052;2022-10-13T07:25:04;101108.34;;;6.01;91.67
74310;BME280;62722;51.142;17.052;2022-10-13T07:27:32;101104.63;;;6.08;91.41
74310;BME280;62722;51.142;17.052;2022-10-13T07:30:00;101105.09;;;6.19;90.92
74310;BME280;62722;51.142;17.052;2022-10-13T07:32:27;101112.72;;;6.26;90.71
74310;BME280;62722;51.142;17.052;2022-10-13T07:34:54;101099.22;;;6.37;90.79
74310;BME280;62722;51.142;17.052;2022-10-13T07:37:21;101106.78;;;6.46;90.32
74310;BME280;62722;51.142;17.052;2022-10-13T07:39:48;101089.91;;;6.53;90.55
74310;BME280;62722;51.142;17.052;2022-10-13T07:42:17;101100.88;;;6.64;90.28
74310;BME280;62722;51.142;17.052;2022-10-13T07:44:44;101098.88;;;6.71;90.13
74310;BME280;62722;51.142;17.052;2022-10-13T07:47:12;101096.69;;;6.83;89.55
74310;BME280;62722;51.142;17.052;2022-10-13T07:49:39;101097.22;;;6.92;89.45
74310;BME280;62722;51.142;17.052;2022-10-13T07:52:06;101084.69;;;7.00;89.23
74310;BME280;62722;51.142;17.052;2022-10-13T07:54:34;101085.28;;;7.06;89.24
74310;BME280;62722;51.142;17.052;2022-10-13T07:57:01;101082.31;;;7.15;88.89
74310;BME280;62722;51.142;17.052;2022-10-13T07:59:32;101081.19;;;7.22;88.92
74310;BME280;62722;51.142;17.052;2022-10-13T08:01:59;101085.03;;;7.35;88.88
74310;BME280;62722;51.142;17.052;2022-10-13T08:04:28;101081.28;;;7.43;88.57
74310;BME280;62722;51.142;17.052;2022-10-13T08:06:55;101076.66;;;7.48;88.90
74310;BME280;62722;51.142;17.052;2022-10-13T08:09:23;101071.06;;;7.57;88.74
74310;BME280;62722;51.142;17.052;2022-10-13T08:11:50;101069.88;;;7.64;88.43
74310;BME280;62722;51.142;17.052;2022-10-13T08:14:18;101062.59;;;7.70;88.33
74310;BME280;62722;51.142;17.052;2022-10-13T08:16:47;101065.91;;;7.75;88.35
74310;BME280;62722;51.142;17.052;2022-10-13T08:19:16;101061.97;;;7.86;88.64
74310;BME280;62722;51.142;17.052;2022-10-13T08:21:44;101061.47;;;7.98;88.21
74310;BME280;62722;51.142;17.052;2022-10-13T08:24:13;101068.19;;;8.05;87.71
74310;BME280;62722;51.142;17.052;2022-10-13T08:26:41;101065.31;;;8.09;87.96
74310;BME280;62722;51.142;17.052;2022-10-13T08:29:09;101054.84;;;8.29;87.48
74310;BME280;62722;51.142;17.052;2022-10-13T08:31:37;101059.00;;;8.35;87.16
74310;BME280;62722;51.142;17.052;2022-10-13T08:34:06;101052.47;;;8.44;86.73
74310;BME280;62722;51.142;17.052;2022-10-13T08:36:34;101052.31;;;8.47;87.23
74310;BME280;62722;51.142;17.052;2022-10-13T08:39:01;101051.84;;;8.57;86.48
74310;BME280;62722;51.142;17.052;2022-10-13T08:41:31;101047.47;;;8.76;86.04
74310;BME280;62722;51.142;17.052;2022-10-13T08:44:02;101047.69;;;8.91;85.66
74310;BME280;62722;51.142;17.052;2022-10-13T08:46:34;101043.94;;;8.96;85.53
74310;BME280;62722;51.142;17.052;2022-10-13T08:49:05;101049.59;;;9.06;85.49
74310;BME280;62722;51.142;17.052;2022-10-13T08:51:33;101043.06;;;9.14;84.86
74310;BME280;62722;51.142;17.052;2022-10-13T08:54:01;101039.50;;;9.34;83.70
74310;BME280;62722;51.142;17.052;2022-10-13T08:56:33;101043.38;;;9.44;82.67
74310;BME280;62722;51.142;17.052;2022-10-13T08:59:03;101038.13;;;9.44;83.40
74310;BME280;62722;51.142;17.052;2022-10-13T09:01:32;101037.19;;;9.45;83.20
74310;BME280;62722;51.142;17.052;2022-10-13T09:04:18;101039.16;;;9.59;83.13
74310;BME280;62722;51.142;17.052;2022-10-13T09:06:52;101032.94;;;9.60;82.68
74310;BME280;62722;51.142;17.052;2022-10-13T09:09:20;101033.94;;;9.57;82.60
74310;BME280;62722;51.142;17.052;2022-10-13T09:11:49;101034.41;;;9.65;82.18
74310;BME280;62722;51.142;17.052;2022-10-13T09:14:22;101022.09;;;9.83;81.81
74310;BME280;62722;51.142;17.052;2022-10-13T09:16:50;101029.47;;;10.11;81.11
74310;BME280;62722;51.142;17.052;2022-10-13T09:19:23;101019.94;;;10.25;79.68
74310;BME280;62722;51.142;17.052;2022-10-13T09:21:53;101022.66;;;10.24;80.16
74310;BME280;62722;51.142;17.052;2022-10-13T09:24:22;101017.53;;;10.21;80.35
74310;BME280;62722;51.142;17.052;2022-10-13T09:27:00;101020.16;;;10.38;79.30
74310;BME280;62722;51.142;17.052;2022-10-13T09:29:29;101008.81;;;10.36;80.14
74310;BME280;62722;51.142;17.052;2022-10-13T09:32:12;101021.53;;;10.45;79.60
74310;BME280;62722;51.142;17.052;2022-10-13T09:34:41;101022.75;;;10.55;79.18
74310;BME280;62722;51.142;17.052;2022-10-13T09:37:17;101032.69;;;10.50;79.96
74310;BME280;62722;51.142;17.052;2022-10-13T09:39:45;101018.28;;;10.40;80.95
74310;BME280;62722;51.142;17.052;2022-10-13T09:42:21;101012.72;;;10.29;81.51
74310;BME280;62722;51.142;17.052;2022-10-13T09:44:59;101013.00;;;10.40;79.65
74310;BME280;62722;51.142;17.052;2022-10-13T09:47:29;101006.97;;;10.38;80.72
74310;BME280;62722;51.142;17.052;2022-10-13T09:50:14;101006.00;;;10.56;79.87
74310;BME280;62722;51.142;17.052;2022-10-13T09:52:43;101005.41;;;10.67;79.05
74310;BME280;62722;51.142;17.052;2022-10-13T09:55:27;100999.34;;;10.65;80.42
74310;BME280;62722;51.142;17.052;2022-10-13T09:58:00;101000.97;;;10.67;80.13
74310;BME280;62722;51.142;17.052;2022-10-13T10:00:30;101002.78;;;10.67;80.17
74310;BME280;62722;51.142;17.052;2022-10-13T10:03:02;100996.00;;;10.61;80.84
74310;BME280;62722;51.142;17.052;2022-10-13T10:05:40;100995.84;;;10.64;80.53
74310;BME280;62722;51.142;17.052;2022-10-13T10:08:13;100993.19;;;10.64;80.78
74310;BME280;62722;51.142;17.052;2022-10-13T10:10:43;100997.06;;;10.74;80.47
74310;BME280;62722;51.142;17.052;2022-10-13T10:13:12;100995.19;;;10.92;79.23
74310;BME280;62722;51.142;17.052;2022-10-13T10:15:48;100992.31;;;10.97;79.70
74310;BME280;62722;51.142;17.052;2022-10-13T10:18:19;100982.84;;;10.93;80.81
74310;BME280;62722;51.142;17.052;2022-10-13T10:20:59;100983.44;;;10.98;79.34
74310;BME280;62722;51.142;17.052;2022-10-13T10:23:36;100977.31;;;10.97;79.70
74310;BME280;62722;51.142;17.052;2022-10-13T10:26:11;100976.72;;;11.08;78.42
74310;BME280;62722;51.142;17.052;2022-10-13T10:29:11;100968.06;;;11.20;78.41
74310;BME280;62722;51.142;17.052;2022-10-13T10:31:50;100965.97;;;11.27;77.99
74310;BME280;62722;51.142;17.052;2022-10-13T10:34:27;100955.69;;;11.36;77.76
74310;BME280;62722;51.142;17.052;2022-10-13T10:37:12;100956.31;;;11.41;77.28
74310;BME280;62722;51.142;17.052;2022-10-13T10:39:46;100953.66;;;11.41;77.77
74310;BME280;62722;51.142;17.052;2022-10-13T10:42:22;100946.28;;;11.46;77.27
74310;BME280;62722;51.142;17.052;2022-10-13T10:44:54;100932.88;;;11.49;77.06
74310;BME280;62722;51.142;17.052;2022-10-13T10:47:24;100933.75;;;11.50;78.55
74310;BME280;62722;51.142;17.052;2022-10-13T10:49:54;100928.38;;;11.51;79.09
74310;BME280;62722;51.142;17.052;2022-10-13T10:52:29;100927.25;;;11.55;78.06
74310;BME280;62722;51.142;17.052;2022-10-13T10:55:03;100919.72;;;11.63;77.68
74310;BME280;62722;51.142;17.052;2022-10-13T10:57:47;100919.31;;;11.85;75.67
74310;BME280;62722;51.142;17.052;2022-10-13T11:00:18;100927.75;;;12.06;75.52
74310;BME280;62722;51.142;17.052;2022-10-13T11:02:53;100911.97;;;12.04;76.25
74310;BME280;62722;51.142;17.052;2022-10-13T11:05:22;100911.69;;;12.09;75.29
74310;BME280;62722;51.142;17.052;2022-10-13T11:07:56;100902.81;;;12.10;76.03
74310;BME280;62722;51.142;17.052;2022-10-13T11:10:24;100904.50;;;12.11;75.97
74310;BME280;62722;51.142;17.052;2022-10-13T11:13:19;100900.94;;;12.12;76.01
74310;BME280;62722;51.142;17.052;2022-10-13T11:15:46;100900.34;;;12.21;75.90
74310;BME280;62722;51.142;17.052;2022-10-13T11:18:55;100893.63;;;12.30;75.36
74310;BME280;62722;51.142;17.052;2022-10-13T11:21:23;100893.63;;;12.30;74.99
74310;BME280;62722;51.142;17.052;2022-10-13T11:23:52;100891.06;;;12.28;75.06
74310;BME280;62722;51.142;17.052;2022-10-13T11:26:29;100879.72;;;12.40;74.31
74310;BME280;62722;51.142;17.052;2022-10-13T11:28:57;100883.91;;;12.71;74.25
74310;BME280;62722;51.142;17.052;2022-10-13T11:31:28;100868.28;;;12.81;73.82
74310;BME280;62722;51.142;17.052;2022-10-13T11:33:58;100868.63;;;12.89;73.09
74310;BME280;62722;51.142;17.052;2022-10-13T11:36:54;100864.47;;;12.85;74.34
74310;BME280;62722;51.142;17.052;2022-10-13T11:45:46;100854.59;;;12.74;74.67
74310;BME280;62722;51.142;17.052;2022-10-13T11:51:31;100838.78;;;12.73;75.45
74310;BME280;62722;51.142;17.052;2022-10-13T11:54:10;100847.28;;;12.78;75.09
74310;BME280;62722;51.142;17.052;2022-10-13T11:56:47;100837.97;;;12.85;74.21
74310;BME280;62722;51.142;17.052;2022-10-13T11:59:20;100843.63;;;12.93;74.38
74310;BME280;62722;51.142;17.052;2022-10-13T12:01:52;100842.78;;;13.05;73.62
74310;BME280;62722;51.142;17.052;2022-10-13T12:04:22;100824.06;;;13.08;74.20
74310;BME280;62722;51.142;17.052;2022-10-13T12:06:54;100818.59;;;13.11;73.22
74310;BME280;62722;51.142;17.052;2022-10-13T12:09:22;100827.00;;;13.03;74.40
74310;BME280;62722;51.142;17.052;2022-10-13T12:11:57;100821.28;;;12.97;75.50
74310;BME280;62722;51.142;17.052;2022-10-13T12:14:30;100820.72;;;12.92;75.62
74310;BME280;62722;51.142;17.052;2022-10-13T12:16:59;100810.03;;;12.93;73.62
74310;BME280;62722;51.142;17.052;2022-10-13T12:19:29;100813.47;;;13.08;72.76
74310;BME280;62722;51.142;17.052;2022-10-13T12:21:58;100802.78;;;13.09;72.50
74310;BME280;62722;51.142;17.052;2022-10-13T12:24:27;100809.50;;;13.40;71.85
74310;BME280;62722;51.142;17.052;2022-10-13T12:26:57;100805.69;;;13.57;71.92
74310;BME280;62722;51.142;17.052;2022-10-13T12:29:25;100802.38;;;13.53;72.39
74310;BME280;62722;51.142;17.052;2022-10-13T12:31:54;100800.38;;;13.44;71.86
74310;BME280;62722;51.142;17.052;2022-10-13T12:34:24;100802.59;;;13.50;72.04
74310;BME280;62722;51.142;17.052;2022-10-13T12:36:58;100806.53;;;13.45;73.30
74310;BME280;62722;51.142;17.052;2022-10-13T12:39:27;100801.66;;;13.51;71.03
74310;BME280;62722;51.142;17.052;2022-10-13T12:41:57;100795.28;;;13.67;70.63
74310;BME280;62722;51.142;17.052;2022-10-13T12:44:27;100798.59;;;13.70;71.82
74310;BME280;62722;51.142;17.052;2022-10-13T12:46:56;100796.16;;;13.67;71.90
74310;BME280;62722;51.142;17.052;2022-10-13T12:49:25;100797.69;;;13.82;69.84
74310;BME280;62722;51.142;17.052;2022-10-13T12:51:55;100800.25;;;13.96;70.23
74310;BME280;62722;51.142;17.052;2022-10-13T12:54:26;100791.66;;;13.93;70.24
74310;BME280;62722;51.142;17.052;2022-10-13T12:56:59;100796.81;;;14.07;68.56
74310;BME280;62722;51.142;17.052;2022-10-13T12:59:29;100789.91;;;14.04;69.26
74310;BME280;62722;51.142;17.052;2022-10-13T13:01:58;100790.25;;;14.00;69.14
74310;BME280;62722;51.142;17.052;2022-10-13T13:04:37;100785.72;;;13.89;69.64
74310;BME280;62722;51.142;17.052;2022-10-13T13:07:24;100786.53;;;13.90;69.48
74310;BME280;62722;51.142;17.052;2022-10-13T13:12:43;100788.25;;;14.03;69.71
74310;BME280;62722;51.142;17.052;2022-10-13T13:15:20;100784.28;;;14.09;70.04
74310;BME280;62722;51.142;17.052;2022-10-13T13:21:05;100777.06;;;14.47;67.29
74310;BME280;62722;51.142;17.052;2022-10-13T13:23:32;100782.00;;;14.41;68.52